sensor_id;sensor_type;location;lat;lon;timestamp;P1;durP1;ratioP1;P2;durP2;ratioP2
26211;SDS011;13951;49.516;6.094;2023-07-31T00:00:45;2.35;;;1.60;;
26211;SDS011;13951;49.516;6.094;2023-07-31T00:03:19;3.92;;;1.60;;
26211;SDS011;13951;49.516;6.094;2023-07-31T00:05:52;4.50;;;1.70;;
26211;SDS011;13951;49.516;6.094;2023-07-31T00:08:25;4.32;;;1.58;;
26211;SDS011;13951;49.516;6.094;2023-07-31T00:10:58;3.38;;;1.80;;
26211;SDS011;13951;49.516;6.094;2023-07-31T00:13:31;2.78;;;2.00;;
26211;SDS011;13951;49.516;6.094;2023-07-31T00:16:05;4.95;;;2.08;;
26211;SDS011;13951;49.516;6.094;2023-07-31T00:18:38;4.00;;;1.80;;
26211;SDS011;13951;49.516;6.094;2023-07-31T00:21:11;3.35;;;1.65;;
26211;SDS011;13951;49.516;6.094;2023-07-31T00:23:45;5.07;;;1.80;;
26211;SDS011;13951;49.516;6.094;2023-07-31T00:26:19;3.70;;;1.80;;
26211;SDS011;13951;49.516;6.094;2023-07-31T00:28:52;5.55;;;2.15;;
26211;SDS011;13951;49.516;6.094;2023-07-31T00:31:26;4.57;;;1.77;;
26211;SDS011;13951;49.516;6.094;2023-07-31T00:34:00;4.00;;;1.75;;
26211;SDS011;13951;49.516;6.094;2023-07-31T00:36:33;6.05;;;1.80;;
26211;SDS011;13951;49.516;6.094;2023-07-31T00:39:06;7.47;;;1.83;;
26211;SDS011;13951;49.516;6.094;2023-07-31T00:41:40;4.90;;;1.63;;
26211;SDS011;13951;49.516;6.094;2023-07-31T00:44:15;4.35;;;1.95;;
26211;SDS011;13951;49.516;6.094;2023-07-31T00:46:48;5.50;;;1.90;;
26211;SDS011;13951;49.516;6.094;2023-07-31T00:49:22;2.55;;;1.85;;
26211;SDS011;13951;49.516;6.094;2023-07-31T00:51:55;6.72;;;1.92;;
26211;SDS011;13951;49.516;6.094;2023-07-31T00:54:30;4.20;;;1.83;;
26211;SDS011;13951;49.516;6.094;2023-07-31T00:57:05;5.45;;;1.98;;
26211;SDS011;13951;49.516;6.094;2023-07-31T00:59:40;2.78;;;1.60;;
26211;SDS011;13951;49.516;6.094;2023-07-31T01:02:14;4.28;;;1.58;;
26211;SDS011;13951;49.516;6.094;2023-07-31T01:04:47;4.93;;;1.73;;
26211;SDS011;13951;49.516;6.094;2023-07-31T01:07:25;4.43;;;1.70;;
26211;SDS011;13951;49.516;6.094;2023-07-31T01:10:08;2.80;;;1.80;;
26211;SDS011;13951;49.516;6.094;2023-07-31T01:12:48;5.32;;;1.77;;
26211;SDS011;13951;49.516;6.094;2023-07-31T01:15:23;5.60;;;1.92;;
26211;SDS011;13951;49.516;6.094;2023-07-31T01:17:57;3.80;;;2.05;;
26211;SDS011;13951;49.516;6.094;2023-07-31T01:20:32;5.00;;;1.80;;
26211;SDS011;13951;49.516;6.094;2023-07-31T01:23:26;3.67;;;1.83;;
26211;SDS011;13951;49.516;6.094;2023-07-31T01:26:26;4.68;;;1.73;;
26211;SDS011;13951;49.516;6.094;2023-07-31T01:29:10;3.58;;;1.90;;
26211;SDS011;13951;49.516;6.094;2023-07-31T01:31:48;5.35;;;2.15;;
26211;SDS011;13951;49.516;6.094;2023-07-31T01:34:22;4.00;;;1.60;;
26211;SDS011;13951;49.516;6.094;2023-07-31T01:36:57;3.83;;;1.98;;
26211;SDS011;13951;49.516;6.094;2023-07-31T01:39:31;5.78;;;1.77;;
26211;SDS011;13951;49.516;6.094;2023-07-31T01:42:04;3.30;;;2.00;;
26211;SDS011;13951;49.516;6.094;2023-07-31T01:44:38;3.50;;;1.90;;
26211;SDS011;13951;49.516;6.094;2023-07-31T01:47:11;5.25;;;2.03;;
26211;SDS011;13951;49.516;6.094;2023-07-31T01:49:45;5.47;;;2.30;;
26211;SDS011;13951;49.516;6.094;2023-07-31T01:52:18;5.47;;;2.35;;
26211;SDS011;13951;49.516;6.094;2023-07-31T01:54:51;4.50;;;2.03;;
26211;SDS011;13951;49.516;6.094;2023-07-31T01:57:25;3.25;;;1.80;;
26211;SDS011;13951;49.516;6.094;2023-07-31T01:59:58;4.25;;;2.30;;
26211;SDS011;13951;49.516;6.094;2023-07-31T02:02:31;6.32;;;2.05;;
26211;SDS011;13951;49.516;6.094;2023-07-31T02:05:05;3.28;;;1.80;;
26211;SDS011;13951;49.516;6.094;2023-07-31T02:07:38;3.90;;;1.75;;
26211;SDS011;13951;49.516;6.094;2023-07-31T02:10:12;4.13;;;1.98;;
26211;SDS011;13951;49.516;6.094;2023-07-31T02:12:45;3.40;;;1.85;;
26211;SDS011;13951;49.516;6.094;2023-07-31T02:15:18;2.65;;;1.98;;
26211;SDS011;13951;49.516;6.094;2023-07-31T02:17:52;5.25;;;2.30;;
26211;SDS011;13951;49.516;6.094;2023-07-31T02:20:25;3.55;;;1.90;;
26211;SDS011;13951;49.516;6.094;2023-07-31T02:22:59;7.68;;;2.53;;
26211;SDS011;13951;49.516;6.094;2023-07-31T02:25:32;5.57;;;1.90;;
26211;SDS011;13951;49.516;6.094;2023-07-31T02:28:05;5.25;;;1.85;;
26211;SDS011;13951;49.516;6.094;2023-07-31T02:30:39;4.90;;;2.08;;
26211;SDS011;13951;49.516;6.094;2023-07-31T02:33:14;3.63;;;1.90;;
26211;SDS011;13951;49.516;6.094;2023-07-31T02:35:48;6.25;;;2.03;;
26211;SDS011;13951;49.516;6.094;2023-07-31T02:38:22;3.60;;;2.00;;
26211;SDS011;13951;49.516;6.094;2023-07-31T02:40:55;4.13;;;1.90;;
26211;SDS011;13951;49.516;6.094;2023-07-31T02:43:29;3.15;;;1.65;;
26211;SDS011;13951;49.516;6.094;2023-07-31T02:46:03;3.45;;;1.80;;
26211;SDS011;13951;49.516;6.094;2023-07-31T02:48:38;5.63;;;2.42;;
26211;SDS011;13951;49.516;6.094;2023-07-31T02:51:12;5.65;;;2.08;;
26211;SDS011;13951;49.516;6.094;2023-07-31T02:53:45;4.25;;;2.20;;
26211;SDS011;13951;49.516;6.094;2023-07-31T02:56:19;5.20;;;1.90;;
26211;SDS011;13951;49.516;6.094;2023-07-31T02:58:53;6.13;;;1.88;;
26211;SDS011;13951;49.516;6.094;2023-07-31T03:01:27;5.50;;;1.83;;
26211;SDS011;13951;49.516;6.094;2023-07-31T03:04:01;5.40;;;1.90;;
26211;SDS011;13951;49.516;6.094;2023-07-31T03:06:35;3.75;;;1.88;;
26211;SDS011;13951;49.516;6.094;2023-07-31T03:09:08;5.40;;;1.92;;
26211;SDS011;13951;49.516;6.094;2023-07-31T03:11:42;5.50;;;1.92;;
26211;SDS011;13951;49.516;6.094;2023-07-31T03:14:15;3.40;;;2.10;;
26211;SDS011;13951;49.516;6.094;2023-07-31T03:16:49;3.97;;;1.50;;
26211;SDS011;13951;49.516;6.094;2023-07-31T03:19:22;6.53;;;2.15;;
26211;SDS011;13951;49.516;6.094;2023-07-31T03:21:55;3.92;;;1.90;;
26211;SDS011;13951;49.516;6.094;2023-07-31T03:24:29;4.65;;;1.92;;
26211;SDS011;13951;49.516;6.094;2023-07-31T03:27:02;3.38;;;1.50;;
26211;SDS011;13951;49.516;6.094;2023-07-31T03:29:35;4.18;;;1.88;;
26211;SDS011;13951;49.516;6.094;2023-07-31T03:32:08;3.58;;;1.77;;
26211;SDS011;13951;49.516;6.094;2023-07-31T03:34:41;2.83;;;1.75;;
26211;SDS011;13951;49.516;6.094;2023-07-31T03:37:15;3.10;;;1.80;;
26211;SDS011;13951;49.516;6.094;2023-07-31T03:39:48;2.78;;;1.48;;
26211;SDS011;13951;49.516;6.094;2023-07-31T03:42:25;3.00;;;1.90;;
26211;SDS011;13951;49.516;6.094;2023-07-31T03:44:59;4.68;;;2.08;;
26211;SDS011;13951;49.516;6.094;2023-07-31T03:47:32;2.25;;;1.55;;
26211;SDS011;13951;49.516;6.094;2023-07-31T03:50:05;3.42;;;1.73;;
26211;SDS011;13951;49.516;6.094;2023-07-31T03:52:38;5.07;;;1.65;;
26211;SDS011;13951;49.516;6.094;2023-07-31T03:55:11;3.30;;;1.65;;
26211;SDS011;13951;49.516;6.094;2023-07-31T03:57:44;4.97;;;1.90;;
26211;SDS011;13951;49.516;6.094;2023-07-31T04:00:23;6.78;;;1.60;;
26211;SDS011;13951;49.516;6.094;2023-07-31T04:02:56;4.60;;;1.75;;
26211;SDS011;13951;49.516;6.094;2023-07-31T04:05:30;4.13;;;1.67;;
26211;SDS011;13951;49.516;6.094;2023-07-31T04:08:05;4.55;;;1.90;;
26211;SDS011;13951;49.516;6.094;2023-07-31T04:10:39;2.80;;;1.55;;
26211;SDS011;13951;49.516;6.094;2023-07-31T04:13:12;4.15;;;1.70;;
26211;SDS011;13951;49.516;6.094;2023-07-31T04:15:49;3.88;;;1.58;;
26211;SDS011;13951;49.516;6.094;2023-07-31T04:18:24;4.22;;;2.08;;
26211;SDS011;13951;49.516;6.094;2023-07-31T04:23:38;3.28;;;1.90;;
26211;SDS011;13951;49.516;6.094;2023-07-31T04:26:11;3.90;;;1.80;;
26211;SDS011;13951;49.516;6.094;2023-07-31T04:28:44;3.35;;;1.67;;
26211;SDS011;13951;49.516;6.094;2023-07-31T04:31:18;3.17;;;1.65;;
26211;SDS011;13951;49.516;6.094;2023-07-31T04:33:51;6.53;;;1.70;;
26211;SDS011;13951;49.516;6.094;2023-07-31T04:36:24;2.40;;;1.77;;
26211;SDS011;13951;49.516;6.094;2023-07-31T04:38:58;4.05;;;1.90;;
26211;SDS011;13951;49.516;6.094;2023-07-31T04:41:33;2.25;;;1.70;;
26211;SDS011;13951;49.516;6.094;2023-07-31T04:44:09;3.47;;;1.90;;
26211;SDS011;13951;49.516;6.094;2023-07-31T04:46:44;2.50;;;1.63;;
26211;SDS011;13951;49.516;6.094;2023-07-31T04:49:18;3.70;;;1.90;;
26211;SDS011;13951;49.516;6.094;2023-07-31T04:51:51;3.83;;;1.67;;
26211;SDS011;13951;49.516;6.094;2023-07-31T04:54:24;3.38;;;1.88;;
26211;SDS011;13951;49.516;6.094;2023-07-31T04:56:59;3.03;;;1.70;;
26211;SDS011;13951;49.516;6.094;2023-07-31T04:59:32;3.55;;;1.70;;
26211;SDS011;13951;49.516;6.094;2023-07-31T05:02:05;4.45;;;1.80;;
26211;SDS011;13951;49.516;6.094;2023-07-31T05:04:40;4.95;;;1.77;;
26211;SDS011;13951;49.516;6.094;2023-07-31T05:07:13;4.88;;;1.55;;
26211;SDS011;13951;49.516;6.094;2023-07-31T05:09:46;4.05;;;1.73;;
26211;SDS011;13951;49.516;6.094;2023-07-31T05:12:20;3.45;;;2.00;;
26211;SDS011;13951;49.516;6.094;2023-07-31T05:14:53;3.83;;;1.88;;
26211;SDS011;13951;49.516;6.094;2023-07-31T05:17:27;4.95;;;1.88;;
26211;SDS011;13951;49.516;6.094;2023-07-31T05:20:00;5.25;;;1.58;;
26211;SDS011;13951;49.516;6.094;2023-07-31T05:22:33;4.57;;;1.98;;
26211;SDS011;13951;49.516;6.094;2023-07-31T05:25:06;4.35;;;1.98;;
26211;SDS011;13951;49.516;6.094;2023-07-31T05:27:40;4.40;;;1.88;;
26211;SDS011;13951;49.516;6.094;2023-07-31T05:30:13;4.70;;;2.22;;
26211;SDS011;13951;49.516;6.094;2023-07-31T05:32:46;6.18;;;2.05;;
26211;SDS011;13951;49.516;6.094;2023-07-31T05:35:20;4.40;;;1.88;;
26211;SDS011;13951;49.516;6.094;2023-07-31T05:37:53;4.85;;;1.80;;
26211;SDS011;13951;49.516;6.094;2023-07-31T05:40:26;6.15;;;1.67;;
26211;SDS011;13951;49.516;6.094;2023-07-31T05:42:59;5.45;;;1.70;;
26211;SDS011;13951;49.516;6.094;2023-07-31T05:45:32;5.68;;;1.60;;
26211;SDS011;13951;49.516;6.094;2023-07-31T05:48:06;4.03;;;1.58;;
26211;SDS011;13951;49.516;6.094;2023-07-31T05:50:40;2.95;;;1.70;;
26211;SDS011;13951;49.516;6.094;2023-07-31T05:53:13;4.05;;;1.50;;
26211;SDS011;13951;49.516;6.094;2023-07-31T05:55:48;4.13;;;1.52;;
26211;SDS011;13951;49.516;6.094;2023-07-31T05:58:21;5.55;;;2.13;;
26211;SDS011;13951;49.516;6.094;2023-07-31T06:00:54;4.03;;;1.63;;
26211;SDS011;13951;49.516;6.094;2023-07-31T06:03:27;3.70;;;1.73;;
26211;SDS011;13951;49.516;6.094;2023-07-31T06:06:01;6.10;;;1.55;;
26211;SDS011;13951;49.516;6.094;2023-07-31T06:08:34;4.95;;;1.50;;
26211;SDS011;13951;49.516;6.094;2023-07-31T06:11:09;5.30;;;1.35;;
26211;SDS011;13951;49.516;6.094;2023-07-31T06:13:43;3.50;;;1.58;;
26211;SDS011;13951;49.516;6.094;2023-07-31T06:16:17;6.22;;;1.90;;
26211;SDS011;13951;49.516;6.094;2023-07-31T06:18:50;5.43;;;1.65;;
26211;SDS011;13951;49.516;6.094;2023-07-31T06:21:23;4.82;;;1.85;;
26211;SDS011;13951;49.516;6.094;2023-07-31T06:23:56;3.70;;;1.88;;
26211;SDS011;13951;49.516;6.094;2023-07-31T06:26:29;5.40;;;1.83;;
26211;SDS011;13951;49.516;6.094;2023-07-31T06:29:02;5.13;;;1.30;;
26211;SDS011;13951;49.516;6.094;2023-07-31T06:31:35;2.20;;;1.40;;
26211;SDS011;13951;49.516;6.094;2023-07-31T06:34:09;4.55;;;1.80;;
26211;SDS011;13951;49.516;6.094;2023-07-31T06:36:43;3.97;;;1.55;;
26211;SDS011;13951;49.516;6.094;2023-07-31T06:39:16;3.35;;;1.70;;
26211;SDS011;13951;49.516;6.094;2023-07-31T06:41:49;3.15;;;1.65;;
26211;SDS011;13951;49.516;6.094;2023-07-31T06:44:23;5.13;;;1.73;;
26211;SDS011;13951;49.516;6.094;2023-07-31T06:46:56;3.10;;;1.50;;
26211;SDS011;13951;49.516;6.094;2023-07-31T06:49:29;3.40;;;1.77;;
26211;SDS011;13951;49.516;6.094;2023-07-31T06:52:02;4.75;;;1.58;;
26211;SDS011;13951;49.516;6.094;2023-07-31T06:54:36;4.13;;;1.80;;
26211;SDS011;13951;49.516;6.094;2023-07-31T06:57:09;2.22;;;1.55;;
26211;SDS011;13951;49.516;6.094;2023-07-31T06:59:42;3.30;;;1.67;;
26211;SDS011;13951;49.516;6.094;2023-07-31T07:02:15;4.07;;;2.17;;
26211;SDS011;13951;49.516;6.094;2023-07-31T07:04:49;2.97;;;1.63;;
26211;SDS011;13951;49.516;6.094;2023-07-31T07:07:22;4.78;;;1.85;;
26211;SDS011;13951;49.516;6.094;2023-07-31T07:09:55;4.07;;;1.80;;
26211;SDS011;13951;49.516;6.094;2023-07-31T07:12:29;4.75;;;1.95;;
26211;SDS011;13951;49.516;6.094;2023-07-31T07:15:03;2.70;;;1.42;;
26211;SDS011;13951;49.516;6.094;2023-07-31T07:17:37;4.65;;;1.83;;
26211;SDS011;13951;49.516;6.094;2023-07-31T07:20:12;2.58;;;1.63;;
26211;SDS011;13951;49.516;6.094;2023-07-31T07:22:46;3.42;;;1.65;;
26211;SDS011;13951;49.516;6.094;2023-07-31T07:25:20;5.05;;;1.95;;
26211;SDS011;13951;49.516;6.094;2023-07-31T07:27:53;3.20;;;1.98;;
26211;SDS011;13951;49.516;6.094;2023-07-31T07:30:26;4.72;;;1.95;;
26211;SDS011;13951;49.516;6.094;2023-07-31T07:32:59;3.90;;;1.92;;
26211;SDS011;13951;49.516;6.094;2023-07-31T07:35:33;3.47;;;1.67;;
26211;SDS011;13951;49.516;6.094;2023-07-31T07:38:07;3.10;;;1.70;;
26211;SDS011;13951;49.516;6.094;2023-07-31T07:40:40;5.30;;;2.00;;
26211;SDS011;13951;49.516;6.094;2023-07-31T07:43:13;5.22;;;2.17;;
26211;SDS011;13951;49.516;6.094;2023-07-31T07:45:46;4.03;;;1.73;;
26211;SDS011;13951;49.516;6.094;2023-07-31T07:48:19;5.88;;;1.98;;
26211;SDS011;13951;49.516;6.094;2023-07-31T07:50:52;6.05;;;2.13;;
26211;SDS011;13951;49.516;6.094;2023-07-31T07:53:26;3.80;;;1.67;;
26211;SDS011;13951;49.516;6.094;2023-07-31T07:55:59;3.83;;;1.73;;
26211;SDS011;13951;49.516;6.094;2023-07-31T07:58:32;5.05;;;2.00;;
26211;SDS011;13951;49.516;6.094;2023-07-31T08:01:06;3.90;;;1.98;;
26211;SDS011;13951;49.516;6.094;2023-07-31T08:03:39;3.83;;;2.15;;
26211;SDS011;13951;49.516;6.094;2023-07-31T08:06:13;4.00;;;1.70;;
26211;SDS011;13951;49.516;6.094;2023-07-31T08:08:47;4.03;;;1.65;;
26211;SDS011;13951;49.516;6.094;2023-07-31T08:11:21;3.30;;;1.30;;
26211;SDS011;13951;49.516;6.094;2023-07-31T08:13:56;4.55;;;1.73;;
26211;SDS011;13951;49.516;6.094;2023-07-31T08:16:29;4.05;;;1.63;;
26211;SDS011;13951;49.516;6.094;2023-07-31T08:19:02;2.42;;;1.40;;
26211;SDS011;13951;49.516;6.094;2023-07-31T08:21:35;5.45;;;2.00;;
26211;SDS011;13951;49.516;6.094;2023-07-31T08:24:08;4.13;;;1.63;;
26211;SDS011;13951;49.516;6.094;2023-07-31T08:26:42;2.70;;;1.55;;
26211;SDS011;13951;49.516;6.094;2023-07-31T08:29:15;3.55;;;1.58;;
26211;SDS011;13951;49.516;6.094;2023-07-31T08:31:48;2.97;;;1.52;;
26211;SDS011;13951;49.516;6.094;2023-07-31T08:34:21;4.15;;;1.55;;
26211;SDS011;13951;49.516;6.094;2023-07-31T08:36:54;2.72;;;1.77;;
26211;SDS011;13951;49.516;6.094;2023-07-31T08:39:29;3.40;;;1.60;;
26211;SDS011;13951;49.516;6.094;2023-07-31T08:42:02;3.63;;;1.60;;
26211;SDS011;13951;49.516;6.094;2023-07-31T08:44:36;1.70;;;1.20;;
26211;SDS011;13951;49.516;6.094;2023-07-31T08:47:11;3.63;;;1.55;;
26211;SDS011;13951;49.516;6.094;2023-07-31T08:49:47;2.13;;;1.50;;
26211;SDS011;13951;49.516;6.094;2023-07-31T08:52:21;3.03;;;1.52;;
26211;SDS011;13951;49.516;6.094;2023-07-31T08:54:54;2.22;;;1.05;;
26211;SDS011;13951;49.516;6.094;2023-07-31T08:57:27;1.80;;;1.25;;
26211;SDS011;13951;49.516;6.094;2023-07-31T09:00:01;1.90;;;1.33;;
26211;SDS011;13951;49.516;6.094;2023-07-31T09:02:41;3.65;;;1.67;;
26211;SDS011;13951;49.516;6.094;2023-07-31T09:05:30;2.20;;;1.50;;
26211;SDS011;13951;49.516;6.094;2023-07-31T09:08:04;3.13;;;1.40;;
26211;SDS011;13951;49.516;6.094;2023-07-31T09:10:44;2.28;;;1.20;;
26211;SDS011;13951;49.516;6.094;2023-07-31T09:13:23;2.97;;;1.33;;
26211;SDS011;13951;49.516;6.094;2023-07-31T09:15:56;3.20;;;1.50;;
26211;SDS011;13951;49.516;6.094;2023-07-31T09:18:30;2.42;;;1.42;;
26211;SDS011;13951;49.516;6.094;2023-07-31T09:21:03;2.15;;;1.30;;
26211;SDS011;13951;49.516;6.094;2023-07-31T09:23:41;3.78;;;1.42;;
26211;SDS011;13951;49.516;6.094;2023-07-31T09:26:30;2.28;;;1.40;;
26211;SDS011;13951;49.516;6.094;2023-07-31T09:29:07;2.20;;;1.40;;
26211;SDS011;13951;49.516;6.094;2023-07-31T09:31:52;4.13;;;1.30;;
26211;SDS011;13951;49.516;6.094;2023-07-31T09:34:30;2.03;;;1.20;;
26211;SDS011;13951;49.516;6.094;2023-07-31T09:37:10;2.28;;;1.10;;
26211;SDS011;13951;49.516;6.094;2023-07-31T09:39:45;2.97;;;1.02;;
26211;SDS011;13951;49.516;6.094;2023-07-31T09:42:27;1.75;;;1.05;;
26211;SDS011;13951;49.516;6.094;2023-07-31T09:45:07;2.40;;;1.30;;
26211;SDS011;13951;49.516;6.094;2023-07-31T09:47:46;4.43;;;1.13;;
26211;SDS011;13951;49.516;6.094;2023-07-31T09:50:21;4.53;;;1.63;;
26211;SDS011;13951;49.516;6.094;2023-07-31T09:52:56;2.10;;;1.20;;
26211;SDS011;13951;49.516;6.094;2023-07-31T09:55:29;2.33;;;1.35;;
26211;SDS011;13951;49.516;6.094;2023-07-31T09:58:05;3.25;;;1.42;;
26211;SDS011;13951;49.516;6.094;2023-07-31T10:00:39;1.67;;;1.10;;
26211;SDS011;13951;49.516;6.094;2023-07-31T10:03:12;3.55;;;1.38;;
26211;SDS011;13951;49.516;6.094;2023-07-31T10:05:49;1.73;;;1.25;;
26211;SDS011;13951;49.516;6.094;2023-07-31T10:08:30;3.35;;;1.38;;
26211;SDS011;13951;49.516;6.094;2023-07-31T10:11:07;2.30;;;1.30;;
26211;SDS011;13951;49.516;6.094;2023-07-31T10:13:42;2.47;;;1.25;;
26211;SDS011;13951;49.516;6.094;2023-07-31T10:16:16;2.70;;;1.40;;
26211;SDS011;13951;49.516;6.094;2023-07-31T10:18:50;4.95;;;1.48;;
26211;SDS011;13951;49.516;6.094;2023-07-31T10:21:25;2.83;;;1.45;;
26211;SDS011;13951;49.516;6.094;2023-07-31T10:23:58;2.78;;;1.45;;
26211;SDS011;13951;49.516;6.094;2023-07-31T10:26:32;2.00;;;1.20;;
26211;SDS011;13951;49.516;6.094;2023-07-31T10:29:08;2.35;;;1.60;;
26211;SDS011;13951;49.516;6.094;2023-07-31T10:31:41;2.25;;;1.52;;
26211;SDS011;13951;49.516;6.094;2023-07-31T10:34:19;4.05;;;1.52;;
26211;SDS011;13951;49.516;6.094;2023-07-31T10:37:19;3.13;;;1.58;;
26211;SDS011;13951;49.516;6.094;2023-07-31T10:40:00;2.22;;;1.50;;
26211;SDS011;13951;49.516;6.094;2023-07-31T10:42:36;3.35;;;1.67;;
26211;SDS011;13951;49.516;6.094;2023-07-31T10:45:12;2.00;;;1.60;;
26211;SDS011;13951;49.516;6.094;2023-07-31T10:47:46;2.25;;;1.70;;
26211;SDS011;13951;49.516;6.094;2023-07-31T10:50:22;3.92;;;1.38;;
26211;SDS011;13951;49.516;6.094;2023-07-31T10:52:56;2.65;;;1.52;;
26211;SDS011;13951;49.516;6.094;2023-07-31T10:58:11;2.15;;;1.40;;
26211;SDS011;13951;49.516;6.094;2023-07-31T11:03:56;4.10;;;1.40;;
26211;SDS011;13951;49.516;6.094;2023-07-31T11:07:45;3.38;;;1.50;;
26211;SDS011;13951;49.516;6.094;2023-07-31T11:11:22;2.95;;;1.50;;
26211;SDS011;13951;49.516;6.094;2023-07-31T11:14:53;3.45;;;1.52;;
26211;SDS011;13951;49.516;6.094;2023-07-31T11:18:00;2.33;;;1.60;;
26211;SDS011;13951;49.516;6.094;2023-07-31T11:21:49;3.55;;;1.50;;
26211;SDS011;13951;49.516;6.094;2023-07-31T11:25:46;2.60;;;1.40;;
26211;SDS011;13951;49.516;6.094;2023-07-31T16:05:17;5.82;;;2.85;;
26211;SDS011;13951;49.516;6.094;2023-07-31T16:09:24;6.00;;;2.72;;
26211;SDS011;13951;49.516;6.094;2023-07-31T16:13:56;6.75;;;2.63;;
26211;SDS011;13951;49.516;6.094;2023-07-31T16:17:09;5.03;;;2.70;;
26211;SDS011;13951;49.516;6.094;2023-07-31T17:39:35;6.85;;;2.85;;
26211;SDS011;13951;49.516;6.094;2023-07-31T17:42:42;5.93;;;2.38;;
26211;SDS011;13951;49.516;6.094;2023-07-31T17:52:36;6.13;;;2.55;;
26211;SDS011;13951;49.516;6.094;2023-07-31T17:56:16;8.45;;;2.67;;
26211;SDS011;13951;49.516;6.094;2023-07-31T17:59:56;7.47;;;2.47;;
26211;SDS011;13951;49.516;6.094;2023-07-31T18:02:39;6.28;;;2.65;;
26211;SDS011;13951;49.516;6.094;2023-07-31T18:05:12;5.47;;;2.65;;
26211;SDS011;13951;49.516;6.094;2023-07-31T18:07:45;4.97;;;2.40;;
26211;SDS011;13951;49.516;6.094;2023-07-31T18:10:18;7.18;;;2.88;;
26211;SDS011;13951;49.516;6.094;2023-07-31T18:12:52;4.68;;;2.65;;
26211;SDS011;13951;49.516;6.094;2023-07-31T18:15:26;5.22;;;2.88;;
26211;SDS011;13951;49.516;6.094;2023-07-31T18:17:59;4.07;;;2.92;;
26211;SDS011;13951;49.516;6.094;2023-07-31T18:20:34;4.70;;;2.55;;
26211;SDS011;13951;49.516;6.094;2023-07-31T18:23:08;4.82;;;2.83;;
26211;SDS011;13951;49.516;6.094;2023-07-31T18:25:41;5.13;;;2.70;;
26211;SDS011;13951;49.516;6.094;2023-07-31T18:28:14;4.68;;;2.90;;
26211;SDS011;13951;49.516;6.094;2023-07-31T18:30:47;5.60;;;2.78;;
26211;SDS011;13951;49.516;6.094;2023-07-31T18:33:20;5.03;;;2.78;;
26211;SDS011;13951;49.516;6.094;2023-07-31T18:35:53;6.28;;;2.75;;
26211;SDS011;13951;49.516;6.094;2023-07-31T18:38:26;5.93;;;2.88;;
26211;SDS011;13951;49.516;6.094;2023-07-31T18:41:05;4.63;;;2.75;;
26211;SDS011;13951;49.516;6.094;2023-07-31T18:43:39;6.03;;;3.00;;
26211;SDS011;13951;49.516;6.094;2023-07-31T18:46:11;4.88;;;2.70;;
26211;SDS011;13951;49.516;6.094;2023-07-31T18:48:45;5.40;;;2.90;;
26211;SDS011;13951;49.516;6.094;2023-07-31T18:51:18;4.72;;;2.50;;
26211;SDS011;13951;49.516;6.094;2023-07-31T18:53:51;6.47;;;2.88;;
26211;SDS011;13951;49.516;6.094;2023-07-31T19:00:15;5.32;;;2.92;;
26211;SDS011;13951;49.516;6.094;2023-07-31T19:03:07;5.88;;;2.75;;
26211;SDS011;13951;49.516;6.094;2023-07-31T19:06:04;5.22;;;3.15;;
26211;SDS011;13951;49.516;6.094;2023-07-31T19:09:00;7.45;;;3.13;;
26211;SDS011;13951;49.516;6.094;2023-07-31T19:12:05;5.43;;;2.90;;
26211;SDS011;13951;49.516;6.094;2023-07-31T19:14:40;6.00;;;3.30;;
26211;SDS011;13951;49.516;6.094;2023-07-31T19:17:33;4.95;;;2.70;;
26211;SDS011;13951;49.516;6.094;2023-07-31T19:20:12;6.40;;;3.40;;
26211;SDS011;13951;49.516;6.094;2023-07-31T19:22:48;6.60;;;2.88;;
26211;SDS011;13951;49.516;6.094;2023-07-31T19:26:26;4.88;;;2.83;;
26211;SDS011;13951;49.516;6.094;2023-07-31T19:29:11;7.68;;;2.88;;
26211;SDS011;13951;49.516;6.094;2023-07-31T19:32:15;4.75;;;2.83;;
26211;SDS011;13951;49.516;6.094;2023-07-31T19:34:52;6.43;;;2.90;;
26211;SDS011;13951;49.516;6.094;2023-07-31T19:37:57;5.97;;;2.55;;
26211;SDS011;13951;49.516;6.094;2023-07-31T19:40:50;5.32;;;2.85;;
26211;SDS011;13951;49.516;6.094;2023-07-31T19:43:40;4.85;;;3.05;;
26211;SDS011;13951;49.516;6.094;2023-07-31T19:46:14;6.25;;;3.40;;
26211;SDS011;13951;49.516;6.094;2023-07-31T19:48:47;5.68;;;3.00;;
26211;SDS011;13951;49.516;6.094;2023-07-31T19:51:20;5.70;;;2.90;;
26211;SDS011;13951;49.516;6.094;2023-07-31T19:53:54;4.45;;;2.50;;
26211;SDS011;13951;49.516;6.094;2023-07-31T19:56:27;6.40;;;2.88;;
26211;SDS011;13951;49.516;6.094;2023-07-31T19:59:01;6.93;;;3.22;;
26211;SDS011;13951;49.516;6.094;2023-07-31T20:01:34;5.55;;;2.85;;
26211;SDS011;13951;49.516;6.094;2023-07-31T20:04:08;5.93;;;3.17;;
26211;SDS011;13951;49.516;6.094;2023-07-31T20:06:41;7.10;;;2.65;;
26211;SDS011;13951;49.516;6.094;2023-07-31T20:09:14;4.40;;;2.60;;
26211;SDS011;13951;49.516;6.094;2023-07-31T20:11:48;7.30;;;3.83;;
26211;SDS011;13951;49.516;6.094;2023-07-31T20:14:21;5.40;;;3.10;;
26211;SDS011;13951;49.516;6.094;2023-07-31T20:16:54;6.93;;;2.88;;
26211;SDS011;13951;49.516;6.094;2023-07-31T20:19:28;6.90;;;3.03;;
26211;SDS011;13951;49.516;6.094;2023-07-31T20:22:01;4.40;;;2.75;;
26211;SDS011;13951;49.516;6.094;2023-07-31T20:24:34;6.45;;;2.88;;
26211;SDS011;13951;49.516;6.094;2023-07-31T20:27:07;7.00;;;3.28;;
26211;SDS011;13951;49.516;6.094;2023-07-31T20:29:41;4.95;;;2.80;;
26211;SDS011;13951;49.516;6.094;2023-07-31T20:32:14;6.35;;;2.80;;
26211;SDS011;13951;49.516;6.094;2023-07-31T20:34:47;3.83;;;2.60;;
26211;SDS011;13951;49.516;6.094;2023-07-31T20:37:20;4.95;;;2.88;;
26211;SDS011;13951;49.516;6.094;2023-07-31T20:39:55;6.88;;;3.00;;
26211;SDS011;13951;49.516;6.094;2023-07-31T20:42:30;5.32;;;3.42;;
26211;SDS011;13951;49.516;6.094;2023-07-31T20:45:03;5.50;;;3.13;;
26211;SDS011;13951;49.516;6.094;2023-07-31T20:47:36;7.43;;;3.40;;
26211;SDS011;13951;49.516;6.094;2023-07-31T20:50:11;7.35;;;3.35;;
26211;SDS011;13951;49.516;6.094;2023-07-31T20:52:44;5.43;;;3.45;;
26211;SDS011;13951;49.516;6.094;2023-07-31T20:55:17;6.35;;;3.63;;
26211;SDS011;13951;49.516;6.094;2023-07-31T20:57:50;9.15;;;3.65;;
26211;SDS011;13951;49.516;6.094;2023-07-31T21:00:27;6.93;;;3.40;;
26211;SDS011;13951;49.516;6.094;2023-07-31T21:03:03;5.60;;;3.30;;
26211;SDS011;13951;49.516;6.094;2023-07-31T21:05:37;6.10;;;3.25;;
26211;SDS011;13951;49.516;6.094;2023-07-31T21:08:10;6.20;;;3.35;;
26211;SDS011;13951;49.516;6.094;2023-07-31T21:10:43;6.53;;;3.50;;
26211;SDS011;13951;49.516;6.094;2023-07-31T21:13:16;9.07;;;4.15;;
26211;SDS011;13951;49.516;6.094;2023-07-31T21:15:49;5.57;;;4.15;;
26211;SDS011;13951;49.516;6.094;2023-07-31T21:18:22;7.25;;;3.83;;
26211;SDS011;13951;49.516;6.094;2023-07-31T21:20:57;5.78;;;3.35;;
26211;SDS011;13951;49.516;6.094;2023-07-31T21:23:30;6.85;;;3.45;;
26211;SDS011;13951;49.516;6.094;2023-07-31T21:26:02;6.43;;;3.22;;
26211;SDS011;13951;49.516;6.094;2023-07-31T21:28:36;5.25;;;2.60;;
26211;SDS011;13951;49.516;6.094;2023-07-31T21:31:21;4.07;;;2.85;;
26211;SDS011;13951;49.516;6.094;2023-07-31T21:34:42;4.35;;;2.78;;
26211;SDS011;13951;49.516;6.094;2023-07-31T21:38:19;4.68;;;2.45;;
26211;SDS011;13951;49.516;6.094;2023-07-31T21:41:05;3.83;;;2.65;;
26211;SDS011;13951;49.516;6.094;2023-07-31T21:43:50;2.50;;;1.80;;
26211;SDS011;13951;49.516;6.094;2023-07-31T21:46:51;5.75;;;2.63;;
26211;SDS011;13951;49.516;6.094;2023-07-31T21:49:58;3.30;;;2.50;;
26211;SDS011;13951;49.516;6.094;2023-07-31T21:57:59;3.63;;;2.22;;
26211;SDS011;13951;49.516;6.094;2023-07-31T22:01:37;3.53;;;2.33;;
26211;SDS011;13951;49.516;6.094;2023-07-31T22:05:30;5.78;;;2.38;;
26211;SDS011;13951;49.516;6.094;2023-07-31T22:18:12;7.20;;;3.03;;
26211;SDS011;13951;49.516;6.094;2023-07-31T22:21:39;6.03;;;3.30;;
26211;SDS011;13951;49.516;6.094;2023-07-31T22:28:30;5.85;;;3.47;;
26211;SDS011;13951;49.516;6.094;2023-07-31T22:31:33;4.73;;;3.23;;